Time;durP1;ratioP1;P1;durP2;ratioP2;P2;SDS_P1;SDS_P2;PMS_P1;PMS_P2;Temp;Humidity;BMP_temperature;BMP_pressure;BME280_temperature;BME280_humidity;BME280_pressure;Samples;Min_cycle;Max_cycle;Signal;HPM_P1;HPM_P2
2022/12/15 15:09:36;;;;;;;50.92;23.23;;;-1.60;1.00;;;;;;5064409;28;20445;-72
2022/12/15 15:12:17;;;;;;;54.97;24.30;;;-1.10;1.00;;;;;;5044718;28;20264;-72
2022/12/15 15:14:46;;;;;;;47.87;22.97;;;-1.50;1.00;;;;;;5042567;28;20432;-72
2022/12/15 15:17:12;;;;;;;49.67;23.17;;;-1.40;1.00;;;;;;5038037;28;20522;-78
2022/12/15 15:19:45;;;;;;;55.40;24.10;;;-1.30;1.00;;;;;;5045843;28;20959;-73
2022/12/15 15:22:28;;;;;;;49.30;22.53;;;-0.80;1.00;;;;;;5042822;28;20184;-73
2022/12/15 15:24:54;;;;;;;55.13;24.47;;;-1.00;1.00;;;;;;5039395;28;20459;-74
2022/12/15 15:27:35;;;;;;;50.00;24.17;;;-1.00;1.00;;;;;;5044412;28;20444;-72
2022/12/15 15:30:20;;;;;;;46.20;23.53;;;-1.00;1.00;;;;;;5040967;28;20308;-71
2022/12/15 15:33:04;;;;;;;47.47;23.30;;;-1.00;1.00;;;;;;5048898;28;20416;-71
2022/12/15 15:35:32;;;;;;;52.37;24.57;;;-1.00;1.00;;;;;;5039322;28;20448;-71
2022/12/15 15:38:19;;;;;;;42.03;21.23;;;-1.00;1.00;;;;;;5045531;28;20432;-71
2022/12/15 15:40:56;;;;;;;44.03;22.73;;;-0.90;1.00;;;;;;5046476;28;20439;-71
2022/12/15 15:43:24;;;;;;;47.53;22.77;;;-0.90;1.00;;;;;;5046380;28;20418;-72
2022/12/15 15:46:04;;;;;;;49.93;23.23;;;-0.90;1.00;;;;;;5044636;28;20993;-73
2022/12/15 15:48:34;;;;;;;48.07;23.93;;;-0.90;1.00;;;;;;5045202;28;20495;-72
2022/12/15 15:51:00;;;;;;;49.73;24.77;;;-1.00;1.00;;;;;;5047711;28;20411;-70
2022/12/15 15:53:30;;;;;;;43.40;23.23;;;-1.00;1.00;;;;;;5040165;28;20440;-71
2022/12/15 15:55:56;;;;;;;54.73;26.27;;;-1.00;1.00;;;;;;5043597;28;20949;-71
2022/12/15 15:58:22;;;;;;;47.70;25.07;;;-0.90;1.00;;;;;;5045290;28;20519;-72
2022/12/15 16:00:47;;;;;;;49.83;26.80;;;-1.10;1.00;;;;;;5044871;28;20792;-71
2022/12/15 16:03:13;;;;;;;55.57;27.83;;;-1.10;1.00;;;;;;5045228;28;20181;-73
2022/12/15 16:05:40;;;;;;;50.53;26.80;;;-0.80;1.00;;;;;;5040123;28;20683;-72
2022/12/15 16:08:07;;;;;;;55.27;27.37;;;-1.10;1.00;;;;;;5045164;28;20208;-71
2022/12/15 16:10:33;;;;;;;49.67;24.27;;;-1.10;1.00;;;;;;5039092;28;20443;-70
2022/12/15 16:13:00;;;;;;;50.30;26.33;;;-1.00;1.00;;;;;;5039816;28;20439;-71
2022/12/15 16:15:32;;;;;;;57.50;27.37;;;-1.00;1.00;;;;;;5040640;28;20177;-72
2022/12/15 16:17:58;;;;;;;49.20;24.33;;;-1.00;1.00;;;;;;5041081;28;20521;-71
2022/12/15 16:20:27;;;;;;;49.80;25.30;;;-1.00;1.00;;;;;;5040246;28;20487;-74
2022/12/15 16:23:13;;;;;;;51.17;23.50;;;-0.90;1.00;;;;;;5029351;28;20260;-69
2022/12/15 16:25:43;;;;;;;47.17;23.57;;;-0.90;1.00;;;;;;5029614;28;20565;-71
2022/12/15 16:28:17;;;;;;;43.70;23.33;;;-1.00;1.00;;;;;;5030793;28;20573;-72
2022/12/15 16:30:43;;;;;;;44.97;21.87;;;-1.00;1.00;;;;;;5041456;28;20988;-71
2022/12/15 16:33:10;;;;;;;44.47;24.27;;;-1.00;1.00;;;;;;5034896;28;20452;-71
2022/12/15 16:35:37;;;;;;;47.73;24.40;;;-0.90;1.00;;;;;;5025026;28;20441;-73
2022/12/15 16:38:26;;;;;;;44.70;22.53;;;-0.60;1.00;;;;;;5029128;28;20444;-71
2022/12/15 16:40:53;;;;;;;44.07;21.87;;;-0.90;1.00;;;;;;5028181;28;20742;-68
2022/12/15 16:43:21;;;;;;;52.30;22.40;;;-0.90;1.00;;;;;;5027948;28;20439;-72
2022/12/15 16:45:50;;;;;;;43.90;22.70;;;-0.90;1.00;;;;;;5025480;28;21063;-72
2022/12/15 16:48:16;;;;;;;40.20;22.13;;;-1.00;1.00;;;;;;5031130;28;20460;-72
2022/12/15 16:50:44;;;;;;;50.63;22.33;;;-1.00;1.00;;;;;;5029598;28;20433;-71
2022/12/15 16:53:18;;;;;;;42.20;21.80;;;-1.10;1.00;;;;;;5030471;28;20657;-72
2022/12/15 16:55:45;;;;;;;53.80;26.33;;;-1.20;1.00;;;;;;5028490;28;20425;-73
2022/12/15 16:58:14;;;;;;;60.70;30.27;;;-1.30;1.00;;;;;;5031913;28;20409;-70
2022/12/15 17:00:40;;;;;;;83.77;33.17;;;-1.30;1.00;;;;;;5042206;28;20478;-71
2022/12/15 17:03:11;;;;;;;73.03;32.27;;;-1.30;1.00;;;;;;5046598;28;20467;-75
2022/12/15 17:05:37;;;;;;;78.20;34.40;;;-0.90;1.00;;;;;;5031723;28;20425;-71
2022/12/15 17:08:05;;;;;;;63.13;27.93;;;-1.30;1.00;;;;;;5032148;28;20490;-69
2022/12/15 17:10:31;;;;;;;74.27;33.50;;;-1.30;1.00;;;;;;5032172;28;20181;-71
2022/12/15 17:13:06;;;;;;;64.23;30.10;;;-1.30;1.00;;;;;;5048846;28;20878;-71
2022/12/15 17:15:31;;;;;;;62.20;31.20;;;-0.90;1.00;;;;;;5030811;28;20478;-71
2022/12/15 17:17:57;;;;;;;59.33;28.70;;;-1.30;1.00;;;;;;5032008;28;20416;-71
2022/12/15 17:20:25;;;;;;;60.83;27.80;;;-1.30;1.00;;;;;;5031690;28;20703;-70
2022/12/15 17:22:54;;;;;;;53.40;26.50;;;-0.80;1.00;;;;;;5030375;28;20166;-71
2022/12/15 17:25:29;;;;;;;42.93;23.37;;;-1.20;1.00;;;;;;5042869;28;20425;-71
2022/12/15 17:27:55;;;;;;;52.22;24.50;;;-1.20;1.00;;;;;;5030665;28;20468;-70
2022/12/15 17:30:21;;;;;;;49.30;25.67;;;-1.10;1.00;;;;;;5037819;28;20329;-69
2022/12/15 17:32:47;;;;;;;43.63;23.77;;;-1.10;1.00;;;;;;5048343;28;20501;-69
2022/12/15 17:35:14;;;;;;;44.27;23.03;;;-1.10;1.00;;;;;;5045592;28;20871;-69
2022/12/15 17:37:41;;;;;;;47.47;25.40;;;-1.00;1.00;;;;;;5028766;28;20910;-70
2022/12/15 17:40:15;;;;;;;48.10;22.10;;;-1.00;1.00;;;;;;5031428;28;20494;-69
2022/12/15 17:42:41;;;;;;;39.10;20.50;;;-1.00;1.00;;;;;;5030947;28;20420;-70
2022/12/15 17:45:20;;;;;;;56.70;25.23;;;-1.00;1.00;;;;;;5031004;28;20491;-70
2022/12/15 17:47:46;;;;;;;50.93;24.80;;;-1.00;1.00;;;;;;5030730;28;20822;-69
2022/12/15 17:50:12;;;;;;;55.50;25.80;;;-1.00;1.00;;;;;;5030694;28;20436;-71
2022/12/15 17:52:38;;;;;;;51.67;24.27;;;-1.00;1.00;;;;;;5029945;28;20834;-70
2022/12/15 17:55:18;;;;;;;52.73;24.67;;;-0.90;1.00;;;;;;5031658;28;20427;-70
2022/12/15 17:57:44;;;;;;;47.00;25.33;;;-0.90;1.00;;;;;;5031805;28;20417;-70
2022/12/15 18:00:22;;;;;;;48.90;24.30;;;-0.90;1.00;;;;;;5028838;28;20479;-70
2022/12/15 18:02:48;;;;;;;43.73;23.13;;;-0.50;1.00;;;;;;5029858;28;20416;-70
2022/12/15 18:05:15;;;;;;;55.03;26.83;;;-0.90;1.00;;;;;;5028827;28;20462;-71
2022/12/15 18:07:41;;;;;;;56.70;26.97;;;-0.80;1.00;;;;;;5028954;28;20198;-72
2022/12/15 18:10:21;;;;;;;52.20;24.27;;;-0.70;1.00;;;;;;5026342;28;20449;-74
2022/12/15 18:12:46;;;;;;;50.77;24.73;;;-0.70;1.00;;;;;;5040086;28;20178;-73
2022/12/15 18:15:21;;;;;;;41.13;20.87;;;-0.30;1.00;;;;;;5027296;28;20717;-74
2022/12/15 18:17:47;;;;;;;39.53;21.70;;;-0.80;1.00;;;;;;5035915;28;20191;-73
2022/12/15 18:20:14;;;;;;;35.70;20.00;;;-0.60;1.00;;;;;;5029281;28;20523;-74
2022/12/15 18:22:40;;;;;;;35.53;18.77;;;-0.80;1.00;;;;;;5023662;28;20181;-72
2022/12/15 18:25:14;;;;;;;38.43;20.80;;;-0.80;1.00;;;;;;5028260;28;20922;-74
2022/12/15 18:27:40;;;;;;;40.13;20.43;;;-0.90;1.00;;;;;;5034009;28;20212;-75
2022/12/15 18:30:06;;;;;;;42.23;20.30;;;-0.60;1.00;;;;;;5016172;28;20456;-73
2022/12/15 18:32:37;;;;;;;37.20;19.80;;;-0.90;1.00;;;;;;5029004;28;20541;-71
2022/12/15 18:35:15;;;;;;;38.57;19.00;;;-1.00;1.00;;;;;;5026805;28;20447;-75
2022/12/15 18:37:41;;;;;;;39.37;19.80;;;-1.00;1.00;;;;;;5017857;28;20510;-74
2022/12/15 18:40:12;;;;;;;44.83;20.87;;;-0.70;1.00;;;;;;5029481;28;20862;-73
2022/12/15 18:42:38;;;;;;;37.40;19.10;;;-1.00;1.00;;;;;;5028047;28;20903;-73
2022/12/15 18:45:16;;;;;;;45.97;21.60;;;-1.00;1.00;;;;;;5028950;28;20409;-73
2022/12/15 18:47:42;;;;;;;51.23;25.10;;;-1.00;1.00;;;;;;5029405;28;20568;-72
2022/12/15 18:50:34;;;;;;;44.67;22.40;;;-1.00;1.00;;;;;;5030160;28;20444;-72
2022/12/15 18:53:01;;;;;;;39.03;19.43;;;-1.10;1.00;;;;;;5018492;28;20316;-72
2022/12/15 18:55:30;;;;;;;49.00;23.27;;;-1.10;1.00;;;;;;5029967;28;20424;-72
2022/12/15 18:57:57;;;;;;;41.90;20.77;;;-1.00;1.00;;;;;;5027713;28;20915;-74
2022/12/15 19:00:29;;;;;;;59.47;26.63;;;-1.00;1.00;;;;;;5023117;28;20461;-73
2022/12/15 19:02:56;;;;;;;54.83;25.10;;;-0.60;1.00;;;;;;5036096;28;20436;-72
2022/12/15 19:05:27;;;;;;;53.13;26.43;;;-1.20;1.00;;;;;;5028474;28;20450;-72
2022/12/15 19:08:00;;;;;;;45.37;24.97;;;-1.20;1.00;;;;;;5025558;28;20522;-72
2022/12/15 19:10:28;;;;;;;47.73;23.23;;;-1.20;1.00;;;;;;5022376;28;20453;-72
2022/12/15 19:12:54;;;;;;;50.33;25.33;;;-1.00;1.00;;;;;;5027857;28;20409;-72
2022/12/15 19:15:19;;;;;;;48.30;25.17;;;-0.70;1.00;;;;;;5027874;28;20724;-71
2022/12/15 19:23:15;;;;;;;43.63;21.97;;;-1.20;1.00;;;;;;5021806;28;20926;-73
2022/12/15 19:25:42;;;;;;;48.97;24.10;;;-0.80;1.00;;;;;;5029202;28;20444;-72
2022/12/15 19:28:16;;;;;;;43.77;23.90;;;-0.90;1.00;;;;;;5028574;28;20854;-72
2022/12/15 19:30:42;;;;;;;43.30;24.23;;;-1.10;1.00;;;;;;5025874;28;20543;-73
2022/12/15 19:33:12;;;;;;;45.60;22.97;;;-0.90;1.00;;;;;;5028032;28;20415;-74
2022/12/15 19:35:40;;;;;;;47.70;24.07;;;-1.10;1.00;;;;;;5025933;28;20440;-71
2022/12/15 19:38:06;;;;;;;38.57;19.53;;;-0.70;1.00;;;;;;5024296;28;20446;-72
2022/12/15 19:40:34;;;;;;;39.20;19.80;;;-0.80;1.00;;;;;;5028532;28;20428;-72
2022/12/15 19:43:02;;;;;;;41.30;21.73;;;-1.10;1.00;;;;;;5028356;28;20444;-72
2022/12/15 19:45:30;;;;;;;42.80;21.27;;;-0.70;1.00;;;;;;5028226;28;20445;-72
2022/12/15 19:47:56;;;;;;;38.57;20.07;;;-0.60;1.00;;;;;;5027191;28;20955;-72
2022/12/15 19:50:28;;;;;;;38.60;19.10;;;-0.90;1.00;;;;;;5024509;28;20452;-72
2022/12/15 19:52:59;;;;;;;34.53;17.50;;;-1.00;1.00;;;;;;5018039;28;20444;-74
2022/12/15 19:55:33;;;;;;;32.50;16.93;;;-0.90;1.00;;;;;;5028789;28;20459;-75
2022/12/15 19:57:59;;;;;;;31.73;17.47;;;-0.70;1.00;;;;;;5031997;28;20445;-72
2022/12/15 20:00:26;;;;;;;30.40;16.40;;;-0.80;1.00;;;;;;5030252;28;20578;-74
2022/12/15 20:02:53;;;;;;;34.40;17.40;;;-0.50;1.00;;;;;;5039730;28;20938;-73
2022/12/15 20:05:20;;;;;;;35.17;16.27;;;-0.80;1.00;;;;;;5026799;28;20441;-72
2022/12/15 20:07:47;;;;;;;30.60;16.77;;;-0.70;1.00;;;;;;5028499;28;21039;-75
2022/12/15 20:10:22;;;;;;;31.43;17.20;;;-0.40;1.00;;;;;;5031117;28;20452;-73
2022/12/15 20:12:48;;;;;;;35.23;17.00;;;-0.30;1.00;;;;;;5030505;28;20467;-72
2022/12/15 20:15:16;;;;;;;30.80;15.77;;;-1.00;1.00;;;;;;5028447;28;20471;-72
2022/12/15 20:17:43;;;;;;;31.60;16.13;;;-0.70;1.00;;;;;;5029556;28;20749;-72
2022/12/15 20:20:12;;;;;;;36.27;17.07;;;-0.70;1.00;;;;;;5031782;28;20441;-72
2022/12/15 20:22:38;;;;;;;33.63;16.13;;;-0.70;1.00;;;;;;5027922;28;20466;-72
2022/12/15 20:25:04;;;;;;;35.30;18.13;;;-0.30;1.00;;;;;;5028098;28;20955;-72
2022/12/15 20:27:30;;;;;;;39.33;18.13;;;-0.70;1.00;;;;;;5031181;28;20182;-72
2022/12/15 20:29:55;;;;;;;30.23;16.43;;;-0.70;1.00;;;;;;5031219;28;20494;-73
2022/12/15 20:32:21;;;;;;;31.90;16.73;;;-0.70;1.00;;;;;;5032197;28;20658;-72
2022/12/15 20:34:47;;;;;;;32.00;16.60;;;-0.60;1.00;;;;;;5028009;28;20737;-73
2022/12/15 20:37:29;;;;;;;31.40;16.43;;;-0.30;1.00;;;;;;5027426;28;20265;-73
2022/12/15 20:39:54;;;;;;;32.83;16.50;;;-0.60;1.00;;;;;;5030889;28;20696;-73
2022/12/15 20:42:21;;;;;;;32.90;17.17;;;-0.80;1.00;;;;;;5029914;28;20511;-71
2022/12/15 20:44:47;;;;;;;27.43;16.80;;;-0.80;1.00;;;;;;5031301;28;20182;-74
2022/12/15 20:47:24;;;;;;;32.70;16.50;;;-0.30;1.00;;;;;;5028010;28;20494;-72
2022/12/15 20:49:51;;;;;;;31.03;16.27;;;-0.50;1.00;;;;;;5025577;28;20549;-72
2022/12/15 20:52:22;;;;;;;29.00;15.20;;;-0.70;1.00;;;;;;5028900;28;20437;-72
2022/12/15 20:54:49;;;;;;;25.60;14.60;;;-0.80;1.00;;;;;;5030814;28;20458;-72
2022/12/15 20:57:14;;;;;;;28.87;16.57;;;-0.80;1.00;;;;;;5030441;28;20440;-72
2022/12/15 20:59:40;;;;;;;31.90;16.43;;;-0.40;1.00;;;;;;5031576;28;20440;-72
2022/12/15 21:02:14;;;;;;;31.23;16.23;;;-0.90;1.00;;;;;;5033790;28;20544;-73
2022/12/15 21:04:40;;;;;;;26.60;14.87;;;-0.90;1.00;;;;;;5029746;28;20476;-71
2022/12/15 21:07:09;;;;;;;36.40;16.90;;;-0.60;1.00;;;;;;5027431;28;20433;-73
2022/12/15 21:09:35;;;;;;;33.77;16.83;;;-0.60;1.00;;;;;;5030927;28;20240;-71
2022/12/15 21:12:00;;;;;;;31.70;16.80;;;-0.60;1.00;;;;;;5029512;28;20444;-71
2022/12/15 21:14:26;;;;;;;32.63;17.03;;;-1.10;1.00;;;;;;5028213;28;20174;-72
2022/12/15 21:16:52;;;;;;;33.67;17.53;;;-0.70;1.00;;;;;;5030512;28;20671;-72
2022/12/15 21:19:18;;;;;;;33.60;16.83;;;-1.00;1.00;;;;;;5028757;28;20256;-74
2022/12/15 21:21:49;;;;;;;29.87;16.53;;;-1.00;1.00;;;;;;5027249;28;20437;-73
2022/12/15 21:24:19;;;;;;;32.87;17.67;;;-0.50;1.00;;;;;;5033694;28;20568;-72
2022/12/15 21:26:45;;;;;;;33.23;16.50;;;-0.90;1.00;;;;;;5030548;28;20417;-74
2022/12/15 21:29:13;;;;;;;34.30;17.23;;;-0.90;1.00;;;;;;5030096;28;20462;-73
2022/12/15 21:31:38;;;;;;;34.10;16.50;;;-0.90;1.00;;;;;;5033219;28;20710;-72
2022/12/15 21:34:04;;;;;;;34.23;16.90;;;-0.50;1.00;;;;;;5030709;28;20487;-71
2022/12/15 21:36:30;;;;;;;33.33;17.50;;;-0.50;1.00;;;;;;5021554;28;20183;-72
2022/12/15 21:38:55;;;;;;;34.10;17.53;;;-0.40;1.00;;;;;;5028633;28;20217;-74
2022/12/15 21:41:22;;;;;;;32.50;17.40;;;-0.90;1.00;;;;;;5026668;28;20251;-72
2022/12/15 21:43:48;;;;;;;32.93;17.13;;;-0.90;1.00;;;;;;5029449;28;20466;-72
2022/12/15 21:46:16;;;;;;;36.90;17.57;;;-0.90;1.00;;;;;;5026431;28;20519;-69
2022/12/15 21:51:32;;;;;;;33.23;16.77;;;-0.70;1.00;;;;;;5014001;28;20476;-70
2022/12/15 21:53:58;;;;;;;31.20;16.00;;;-0.80;1.00;;;;;;5028788;28;20504;-74
2022/12/15 21:56:24;;;;;;;39.70;18.23;;;-0.80;1.00;;;;;;5029582;28;20531;-72
2022/12/15 21:58:51;;;;;;;35.67;18.20;;;-0.50;1.00;;;;;;5029578;28;20206;-74
2022/12/15 22:01:22;;;;;;;48.63;21.77;;;-0.30;1.00;;;;;;5025808;28;20173;-72
2022/12/15 22:03:51;;;;;;;48.60;21.20;;;-0.60;1.00;;;;;;5029688;28;20424;-72
2022/12/15 22:06:20;;;;;;;36.03;17.10;;;-0.40;1.00;;;;;;5021245;28;20918;-72
2022/12/15 22:08:45;;;;;;;41.40;19.70;;;-0.80;1.00;;;;;;5028459;28;20491;-74
2022/12/15 22:11:22;;;;;;;40.73;19.10;;;-1.10;1.00;;;;;;5028118;28;21249;-73
2022/12/15 22:13:50;;;;;;;39.77;19.60;;;-0.80;1.00;;;;;;5029045;28;20215;-72
2022/12/15 22:16:16;;;;;;;42.57;19.70;;;-0.90;1.00;;;;;;5028862;28;20429;-72
2022/12/15 22:18:42;;;;;;;47.10;22.27;;;-0.70;1.00;;;;;;5026626;28;20459;-72
2022/12/15 22:21:07;;;;;;;49.23;21.57;;;-0.40;1.00;;;;;;5028775;28;20744;-72
2022/12/15 22:23:33;;;;;;;44.63;20.80;;;-0.40;1.00;;;;;;5027668;28;20444;-72
2022/12/15 22:25:59;;;;;;;46.80;20.53;;;-0.70;1.00;;;;;;5029384;28;20173;-72
2022/12/15 22:28:27;;;;;;;41.27;19.33;;;-0.60;1.00;;;;;;5028052;28;20221;-72
2022/12/15 22:30:54;;;;;;;50.03;20.70;;;-0.70;1.00;;;;;;5034278;28;20757;-70
2022/12/15 22:33:22;;;;;;;42.13;20.40;;;-0.40;1.00;;;;;;5026920;28;20510;-70
2022/12/15 22:35:55;;;;;;;47.83;21.57;;;-0.10;1.00;;;;;;5021859;28;20433;-72
2022/12/15 22:38:22;;;;;;;59.47;22.47;;;-0.10;1.00;;;;;;5028441;28;20420;-72
2022/12/15 22:40:50;;;;;;;37.03;18.60;;;-0.50;1.00;;;;;;5028515;28;20997;-72
2022/12/15 22:43:38;;;;;;;57.83;23.70;;;-0.20;1.00;;;;;;5028570;28;20421;-72
2022/12/15 22:46:07;;;;;;;60.33;25.80;;;-0.50;1.00;;;;;;5027543;28;20440;-72
2022/12/15 22:48:35;;;;;;;59.00;25.53;;;0.00;1.00;;;;;;5022979;28;20467;-71
2022/12/15 22:51:03;;;;;;;38.10;19.83;;;0.00;1.00;;;;;;5028587;28;20409;-72
2022/12/15 22:53:31;;;;;;;38.77;18.60;;;-0.40;1.00;;;;;;5015700;28;20460;-72
2022/12/15 22:55:59;;;;;;;58.47;24.47;;;-0.20;1.00;;;;;;5021924;28;20741;-72
2022/12/15 22:58:29;;;;;;;38.77;17.97;;;-0.20;1.00;;;;;;5028152;28;20456;-71
2022/12/15 23:00:56;;;;;;;56.20;24.97;;;-0.30;1.00;;;;;;5027781;28;20432;-73
2022/12/15 23:03:22;;;;;;;45.10;20.40;;;-0.30;1.00;;;;;;5025233;28;20694;-72
2022/12/15 23:05:48;;;;;;;42.97;20.37;;;0.10;1.00;;;;;;5019554;28;20452;-72
2022/12/15 23:08:14;;;;;;;41.47;19.37;;;-0.30;1.00;;;;;;5028157;28;20456;-72
2022/12/15 23:13:24;;;;;;;44.23;20.40;;;-0.30;1.00;;;;;;5028071;28;20511;-72
2022/12/15 23:18:34;;;;;;;36.30;17.77;;;0.00;1.00;;;;;;5025095;28;20643;-72
2022/12/15 23:21:01;;;;;;;36.17;17.10;;;-0.40;1.00;;;;;;5027256;28;20432;-72
2022/12/15 23:23:26;;;;;;;35.23;17.77;;;-0.40;1.00;;;;;;5028163;28;20412;-74
2022/12/15 23:25:53;;;;;;;39.87;21.23;;;-0.40;1.00;;;;;;5022525;28;20437;-72
2022/12/15 23:28:19;;;;;;;40.27;19.27;;;-0.30;1.00;;;;;;5028410;28;20506;-70
2022/12/15 23:30:52;;;;;;;28.57;15.37;;;0.30;1.00;;;;;;5029329;28;20979;-72
2022/12/15 23:33:18;;;;;;;34.20;17.40;;;0.10;1.00;;;;;;5032724;28;20413;-72
2022/12/15 23:35:44;;;;;;;31.30;15.77;;;-0.30;1.00;;;;;;5024947;28;20443;-72
2022/12/15 23:38:11;;;;;;;31.30;15.33;;;-0.10;1.00;;;;;;5031490;28;20650;-73
2022/12/15 23:40:36;;;;;;;32.97;16.47;;;-0.30;1.00;;;;;;5031406;28;20535;-75
2022/12/15 23:43:02;;;;;;;26.83;14.83;;;-0.30;1.00;;;;;;5031300;28;20516;-72
2022/12/15 23:45:27;;;;;;;31.50;14.97;;;0.00;1.00;;;;;;5029761;28;20185;-74
2022/12/15 23:47:53;;;;;;;27.23;15.17;;;-0.40;1.00;;;;;;5027479;28;20709;-71
2022/12/15 23:50:19;;;;;;;31.50;15.40;;;-0.50;1.00;;;;;;5028943;28;20236;-74
2022/12/15 23:52:44;;;;;;;33.80;15.47;;;-0.50;1.00;;;;;;5029717;28;20174;-72
2022/12/15 23:55:10;;;;;;;28.17;14.73;;;-0.50;1.00;;;;;;5029140;28;20182;-72
2022/12/15 23:57:37;;;;;;;25.80;15.47;;;-0.10;1.00;;;;;;5032165;28;20197;-77
